Aviation Digital Data Service (ADDS)

Output produced by METARs form (1644 UTC 21 October 2014)
found at http://aviationweather.gov/adds/metars/
 
KPOU 211316Z 2113/2212 00000KT 6SM -SHRA OVC060 
     TEMPO 2113/2115 2SM RA BR SCT015 OVC035 
     FM211500 VRB03KT 6SM -SHRA BR SCT035 OVC050 
     FM220300 02004KT 6SM BR VCSH OVC030 
     FM220800 02005KT 5SM BR VCSH OVC015